Aviation Digital Data Service (ADDS)

Output produced by METARs form (1701 UTC 03 June 2020)
found at http://www.aviationweather.gov/metar/data/
 
METAR text: LMML 031645Z 22006KT 190V250 9999 FEW020 23/14 Q1012 NOSIG
Conditions at: LMML (LUQA/MALTA , MT) observed 1645 UTC 03 June 2020
Temperature: 23.0°C (73°F)
Dewpoint: 14.0°C (57°F) [RH = 57%]
Pressure (altimeter): 29.88 inches Hg (1012.0 mb)
Winds: from the SW (220 degrees) at 7 MPH (6 knots; 3.1 m/s)
Visibility: 6 or more miles (10+ km)
Ceiling: at least 12,000 feet AGL
Clouds: few clouds at 2000 feet AGL
Weather: no significant weather observed at this time

METAR text: LMML 031615Z 23005KT 180V270 9999 FEW035 24/14 Q1012 NOSIG
Conditions at: LMML (LUQA/MALTA , MT) observed 1615 UTC 03 June 2020
Temperature: 24.0°C (75°F)
Dewpoint: 14.0°C (57°F) [RH = 54%]
Pressure (altimeter): 29.88 inches Hg (1012.0 mb)
Winds: from the SW (230 degrees) at 6 MPH (5 knots; 2.6 m/s)
Visibility: 6 or more miles (10+ km)
Ceiling: at least 12,000 feet AGL
Clouds: few clouds at 3500 feet AGL
Weather: no significant weather observed at this time

METAR text: LMML 031545Z 24007KT 220V280 9999 FEW038 24/13 Q1012 NOSIG
Conditions at: LMML (LUQA/MALTA , MT) observed 1545 UTC 03 June 2020
Temperature: 24.0°C (75°F)
Dewpoint: 13.0°C (55°F) [RH = 50%]
Pressure (altimeter): 29.88 inches Hg (1012.0 mb)
Winds: from the WSW (240 degrees) at 8 MPH (7 knots; 3.6 m/s)
Visibility: 6 or more miles (10+ km)
Ceiling: at least 12,000 feet AGL
Clouds: few clouds at 3800 feet AGL
Weather: no significant weather observed at this time

METAR text: LMML 031515Z 25007KT 190V300 9999 FEW040 24/14 Q1012 NOSIG
Conditions at: LMML (LUQA/MALTA , MT) observed 1515 UTC 03 June 2020
Temperature: 24.0°C (75°F)
Dewpoint: 14.0°C (57°F) [RH = 54%]
Pressure (altimeter): 29.88 inches Hg (1012.0 mb)
Winds: from the WSW (250 degrees) at 8 MPH (7 knots; 3.6 m/s)
Visibility: 6 or more miles (10+ km)
Ceiling: at least 12,000 feet AGL
Clouds: few clouds at 4000 feet AGL
Weather: no significant weather observed at this time

METAR text: LMML 031445Z 23010KT 210V270 9999 FEW040 24/13 Q1012 NOSIG
Conditions at: LMML (LUQA/MALTA , MT) observed 1445 UTC 03 June 2020
Temperature: 24.0°C (75°F)
Dewpoint: 13.0°C (55°F) [RH = 50%]
Pressure (altimeter): 29.88 inches Hg (1012.0 mb)
Winds: from the SW (230 degrees) at 12 MPH (10 knots; 5.1 m/s)
Visibility: 6 or more miles (10+ km)
Ceiling: at least 12,000 feet AGL
Clouds: few clouds at 4000 feet AGL
Weather: no significant weather observed at this time

METAR text: LMML 031415Z 23009KT 170V260 9999 FEW035 24/13 Q1012 NOSIG
Conditions at: LMML (LUQA/MALTA , MT) observed 1415 UTC 03 June 2020
Temperature: 24.0°C (75°F)
Dewpoint: 13.0°C (55°F) [RH = 50%]
Pressure (altimeter): 29.88 inches Hg (1012.0 mb)
Winds: from the SW (230 degrees) at 10 MPH (9 knots; 4.6 m/s)
Visibility: 6 or more miles (10+ km)
Ceiling: at least 12,000 feet AGL
Clouds: few clouds at 3500 feet AGL
Weather: no significant weather observed at this time

METAR text: LMML 031345Z 22008KT 180V250 9999 FEW042 24/14 Q1012 NOSIG
Conditions at: LMML (LUQA/MALTA , MT) observed 1345 UTC 03 June 2020
Temperature: 24.0°C (75°F)
Dewpoint: 14.0°C (57°F) [RH = 54%]
Pressure (altimeter): 29.88 inches Hg (1012.0 mb)
Winds: from the SW (220 degrees) at 9 MPH (8 knots; 4.1 m/s)
Visibility: 6 or more miles (10+ km)
Ceiling: at least 12,000 feet AGL
Clouds: few clouds at 4200 feet AGL
Weather: no significant weather observed at this time

METAR text: LMML 031315Z 23009KT 190V270 9999 FEW041 24/14 Q1012 NOSIG
Conditions at: LMML (LUQA/MALTA , MT) observed 1315 UTC 03 June 2020
Temperature: 24.0°C (75°F)
Dewpoint: 14.0°C (57°F) [RH = 54%]
Pressure (altimeter): 29.88 inches Hg (1012.0 mb)
Winds: from the SW (230 degrees) at 10 MPH (9 knots; 4.6 m/s)
Visibility: 6 or more miles (10+ km)
Ceiling: at least 12,000 feet AGL
Clouds: few clouds at 4100 feet AGL
Weather: no significant weather observed at this time

METAR text: LMML 031245Z 22008KT 170V280 9999 FEW028 25/14 Q1013 NOSIG
Conditions at: LMML (LUQA/MALTA , MT) observed 1245 UTC 03 June 2020
Temperature: 25.0°C (77°F)
Dewpoint: 14.0°C (57°F) [RH = 50%]
Pressure (altimeter): 29.91 inches Hg (1013.0 mb)
Winds: from the SW (220 degrees) at 9 MPH (8 knots; 4.1 m/s)
Visibility: 6 or more miles (10+ km)
Ceiling: at least 12,000 feet AGL
Clouds: few clouds at 2800 feet AGL
Weather: no significant weather observed at this time

METAR text: LMML 031215Z 23007KT 170V260 9999 FEW035TCU 24/14 Q1013 NOSIG
Conditions at: LMML (LUQA/MALTA , MT) observed 1215 UTC 03 June 2020
Temperature: 24.0°C (75°F)
Dewpoint: 14.0°C (57°F) [RH = 54%]
Pressure (altimeter): 29.91 inches Hg (1013.0 mb)
Winds: from the SW (230 degrees) at 8 MPH (7 knots; 3.6 m/s)
Visibility: 6 or more miles (10+ km)
Ceiling: at least 12,000 feet AGL
Clouds: few clouds at 3500 feet AGL
Weather: no significant weather observed at this time

METAR text: LMML 031145Z 19008KT 150V240 9999 FEW032 24/14 Q1013 NOSIG
Conditions at: LMML (LUQA/MALTA , MT) observed 1145 UTC 03 June 2020
Temperature: 24.0°C (75°F)
Dewpoint: 14.0°C (57°F) [RH = 54%]
Pressure (altimeter): 29.91 inches Hg (1013.0 mb)
Winds: from the S (190 degrees) at 9 MPH (8 knots; 4.1 m/s)
Visibility: 6 or more miles (10+ km)
Ceiling: at least 12,000 feet AGL
Clouds: few clouds at 3200 feet AGL
Weather: no significant weather observed at this time

METAR text: LMML 031115Z 20007KT 160V240 9999 FEW035 24/15 Q1013 NOSIG
Conditions at: LMML (LUQA/MALTA , MT) observed 1115 UTC 03 June 2020
Temperature: 24.0°C (75°F)
Dewpoint: 15.0°C (59°F) [RH = 57%]
Pressure (altimeter): 29.91 inches Hg (1013.0 mb)
Winds: from the SSW (200 degrees) at 8 MPH (7 knots; 3.6 m/s)
Visibility: 6 or more miles (10+ km)
Ceiling: at least 12,000 feet AGL
Clouds: few clouds at 3500 feet AGL
Weather: no significant weather observed at this time

METAR text: LMML 031045Z 09005KT 050V140 9999 FEW030 23/16 Q1013 NOSIG
Conditions at: LMML (LUQA/MALTA , MT) observed 1045 UTC 03 June 2020
Temperature: 23.0°C (73°F)
Dewpoint: 16.0°C (61°F) [RH = 65%]
Pressure (altimeter): 29.91 inches Hg (1013.0 mb)
Winds: from the E (90 degrees) at 6 MPH (5 knots; 2.6 m/s)
Visibility: 6 or more miles (10+ km)
Ceiling: at least 12,000 feet AGL
Clouds: few clouds at 3000 feet AGL
Weather: no significant weather observed at this time

METAR text: LMML 031015Z VRB05KT 9999 FEW024 23/16 Q1013 NOSIG
Conditions at: LMML (LUQA/MALTA , MT) observed 1015 UTC 03 June 2020
Temperature: 23.0°C (73°F)
Dewpoint: 16.0°C (61°F) [RH = 65%]
Pressure (altimeter): 29.91 inches Hg (1013.0 mb)
Winds: variable direction winds at 6 MPH (5 knots; 2.6 m/s)
Visibility: 6 or more miles (10+ km)
Ceiling: at least 12,000 feet AGL
Clouds: few clouds at 2400 feet AGL
Weather: no significant weather observed at this time

METAR text: LMML 030945Z VRB05KT 9999 FEW032 25/15 Q1013 NOSIG
Conditions at: LMML (LUQA/MALTA , MT) observed 0945 UTC 03 June 2020
Temperature: 25.0°C (77°F)
Dewpoint: 15.0°C (59°F) [RH = 54%]
Pressure (altimeter): 29.91 inches Hg (1013.0 mb)
Winds: variable direction winds at 6 MPH (5 knots; 2.6 m/s)
Visibility: 6 or more miles (10+ km)
Ceiling: at least 12,000 feet AGL
Clouds: few clouds at 3200 feet AGL
Weather: no significant weather observed at this time

METAR text: LMML 030915Z 32006KT 270V060 9999 FEW025 25/13 Q1013 NOSIG
Conditions at: LMML (LUQA/MALTA , MT) observed 0915 UTC 03 June 2020
Temperature: 25.0°C (77°F)
Dewpoint: 13.0°C (55°F) [RH = 47%]
Pressure (altimeter): 29.91 inches Hg (1013.0 mb)
Winds: from the NW (320 degrees) at 7 MPH (6 knots; 3.1 m/s)
Visibility: 6 or more miles (10+ km)
Ceiling: at least 12,000 feet AGL
Clouds: few clouds at 2500 feet AGL
Weather: no significant weather observed at this time

METAR text: LMML 030845Z 32007KT 260V010 9999 FEW028 24/15 Q1013
Conditions at: LMML (LUQA/MALTA , MT) observed 0845 UTC 03 June 2020
Temperature: 24.0°C (75°F)
Dewpoint: 15.0°C (59°F) [RH = 57%]
Pressure (altimeter): 29.91 inches Hg (1013.0 mb)
Winds: from the NW (320 degrees) at 8 MPH (7 knots; 3.6 m/s)
Visibility: 6 or more miles (10+ km)
Ceiling: at least 12,000 feet AGL
Clouds: few clouds at 2800 feet AGL
Weather: no significant weather observed at this time

METAR text: LMML 030815Z AUTO 31004KT 200V010 9999 FEW033/// 24/14 Q1013
Conditions at: LMML (LUQA/MALTA , MT) observed 0815 UTC 03 June 2020
Temperature: 24.0°C (75°F)
Dewpoint: 14.0°C (57°F) [RH = 54%]
Pressure (altimeter): 29.91 inches Hg (1013.0 mb)
Winds: from the NW (310 degrees) at 5 MPH (4 knots; 2.1 m/s)
Visibility: 6 or more miles (10+ km)
Ceiling: at least 12,000 feet AGL
Clouds: few clouds at 3300 feet AGL
Weather: no significant weather observed at this time

METAR text: LMML 030745Z AUTO VRB05KT CAVOK 23/15 Q1013
Conditions at: LMML (LUQA/MALTA , MT) observed 0745 UTC 03 June 2020
Temperature: 23.0°C (73°F)
Dewpoint: 15.0°C (59°F) [RH = 61%]
Pressure (altimeter): 29.91 inches Hg (1013.0 mb)
Winds: variable direction winds at 6 MPH (5 knots; 2.6 m/s)
Visibility: 6 or more miles (10+ km)
Ceiling: ceiling and visibility are OK
Clouds: unknown
Weather: no significant weather observed at this time

METAR text: LMML 030715Z AUTO 26006KT 220V290 9999 FEW027/// 22/15 Q1013 NOSIG
Conditions at: LMML (LUQA/MALTA , MT) observed 0715 UTC 03 June 2020
Temperature: 22.0°C (72°F)
Dewpoint: 15.0°C (59°F) [RH = 65%]
Pressure (altimeter): 29.91 inches Hg (1013.0 mb)
Winds: from the W (260 degrees) at 7 MPH (6 knots; 3.1 m/s)
Visibility: 6 or more miles (10+ km)
Ceiling: at least 12,000 feet AGL
Clouds: few clouds at 2700 feet AGL
Weather: no significant weather observed at this time

METAR text: LMML 030645Z AUTO 25006KT 210V310 CAVOK 22/16 Q1013 NOSIG
Conditions at: LMML (LUQA/MALTA , MT) observed 0645 UTC 03 June 2020
Temperature: 22.0°C (72°F)
Dewpoint: 16.0°C (61°F) [RH = 69%]
Pressure (altimeter): 29.91 inches Hg (1013.0 mb)
Winds: from the WSW (250 degrees) at 7 MPH (6 knots; 3.1 m/s)
Visibility: 6 or more miles (10+ km)
Ceiling: ceiling and visibility are OK
Clouds: unknown
Weather: no significant weather observed at this time

METAR text: LMML 030615Z AUTO 28006KT 230V310 CAVOK 21/16 Q1013 NOSIG
Conditions at: LMML (LUQA/MALTA , MT) observed 0615 UTC 03 June 2020
Temperature: 21.0°C (70°F)
Dewpoint: 16.0°C (61°F) [RH = 73%]
Pressure (altimeter): 29.91 inches Hg (1013.0 mb)
Winds: from the W (280 degrees) at 7 MPH (6 knots; 3.1 m/s)
Visibility: 6 or more miles (10+ km)
Ceiling: ceiling and visibility are OK
Clouds: unknown
Weather: no significant weather observed at this time

METAR text: LMML 030545Z VRB02KT 9999 FEW020 20/17 Q1012 NOSIG
Conditions at: LMML (LUQA/MALTA , MT) observed 0545 UTC 03 June 2020
Temperature: 20.0°C (68°F)
Dewpoint: 17.0°C (63°F) [RH = 83%]
Pressure (altimeter): 29.88 inches Hg (1012.0 mb)
Winds: variable direction winds at 2 MPH (2 knots; 1.0 m/s)
Visibility: 6 or more miles (10+ km)
Ceiling: at least 12,000 feet AGL
Clouds: few clouds at 2000 feet AGL
Weather: no significant weather observed at this time

METAR text: LMML 030515Z VRB02KT 9999 FEW018 18/17 Q1012 NOSIG
Conditions at: LMML (LUQA/MALTA , MT) observed 0515 UTC 03 June 2020
Temperature: 18.0°C (64°F)
Dewpoint: 17.0°C (63°F) [RH = 94%]
Pressure (altimeter): 29.88 inches Hg (1012.0 mb)
Winds: variable direction winds at 2 MPH (2 knots; 1.0 m/s)
Visibility: 6 or more miles (10+ km)
Ceiling: at least 12,000 feet AGL
Clouds: few clouds at 1800 feet AGL
Weather: no significant weather observed at this time

METAR text: LMML 030445Z 25004KT 230V290 9999 FEW018 18/16 Q1012 NOSIG
Conditions at: LMML (LUQA/MALTA , MT) observed 0445 UTC 03 June 2020
Temperature: 18.0°C (64°F)
Dewpoint: 16.0°C (61°F) [RH = 88%]
Pressure (altimeter): 29.88 inches Hg (1012.0 mb)
Winds: from the WSW (250 degrees) at 5 MPH (4 knots; 2.1 m/s)
Visibility: 6 or more miles (10+ km)
Ceiling: at least 12,000 feet AGL
Clouds: few clouds at 1800 feet AGL
Weather: no significant weather observed at this time

METAR text: LMML 030415Z 26004KT 9999 FEW021 17/15 Q1012 NOSIG
Conditions at: LMML (LUQA/MALTA , MT) observed 0415 UTC 03 June 2020
Temperature: 17.0°C (63°F)
Dewpoint: 15.0°C (59°F) [RH = 88%]
Pressure (altimeter): 29.88 inches Hg (1012.0 mb)
Winds: from the W (260 degrees) at 5 MPH (4 knots; 2.1 m/s)
Visibility: 6 or more miles (10+ km)
Ceiling: at least 12,000 feet AGL
Clouds: few clouds at 2100 feet AGL
Weather: no significant weather observed at this time

METAR text: LMML 030345Z 24003KT 9999 FEW020 17/15 Q1012 NOSIG
Conditions at: LMML (LUQA/MALTA , MT) observed 0345 UTC 03 June 2020
Temperature: 17.0°C (63°F)
Dewpoint: 15.0°C (59°F) [RH = 88%]
Pressure (altimeter): 29.88 inches Hg (1012.0 mb)
Winds: from the WSW (240 degrees) at 3 MPH (3 knots; 1.5 m/s)
Visibility: 6 or more miles (10+ km)
Ceiling: at least 12,000 feet AGL
Clouds: few clouds at 2000 feet AGL
Weather: no significant weather observed at this time

METAR text: LMML 030315Z 24003KT 9999 FEW020 17/15 Q1012 NOSIG
Conditions at: LMML (LUQA/MALTA , MT) observed 0315 UTC 03 June 2020
Temperature: 17.0°C (63°F)
Dewpoint: 15.0°C (59°F) [RH = 88%]
Pressure (altimeter): 29.88 inches Hg (1012.0 mb)
Winds: from the WSW (240 degrees) at 3 MPH (3 knots; 1.5 m/s)
Visibility: 6 or more miles (10+ km)
Ceiling: at least 12,000 feet AGL
Clouds: few clouds at 2000 feet AGL
Weather: no significant weather observed at this time

METAR text: LMML 030245Z 25004KT 9999 SCT020 16/15 Q1012 NOSIG
Conditions at: LMML (LUQA/MALTA , MT) observed 0245 UTC 03 June 2020
Temperature: 16.0°C (61°F)
Dewpoint: 15.0°C (59°F) [RH = 94%]
Pressure (altimeter): 29.88 inches Hg (1012.0 mb)
Winds: from the WSW (250 degrees) at 5 MPH (4 knots; 2.1 m/s)
Visibility: 6 or more miles (10+ km)
Ceiling: at least 12,000 feet AGL
Clouds: scattered clouds at 2000 feet AGL
Weather: no significant weather observed at this time

METAR text: LMML 030215Z 27004KT 9999 FEW021 17/15 Q1012 NOSIG
Conditions at: LMML (LUQA/MALTA , MT) observed 0215 UTC 03 June 2020
Temperature: 17.0°C (63°F)
Dewpoint: 15.0°C (59°F) [RH = 88%]
Pressure (altimeter): 29.88 inches Hg (1012.0 mb)
Winds: from the W (270 degrees) at 5 MPH (4 knots; 2.1 m/s)
Visibility: 6 or more miles (10+ km)
Ceiling: at least 12,000 feet AGL
Clouds: few clouds at 2100 feet AGL
Weather: no significant weather observed at this time

METAR text: LMML 030145Z 23003KT 9999 FEW020 17/15 Q1012 NOSIG
Conditions at: LMML (LUQA/MALTA , MT) observed 0145 UTC 03 June 2020
Temperature: 17.0°C (63°F)
Dewpoint: 15.0°C (59°F) [RH = 88%]
Pressure (altimeter): 29.88 inches Hg (1012.0 mb)
Winds: from the SW (230 degrees) at 3 MPH (3 knots; 1.5 m/s)
Visibility: 6 or more miles (10+ km)
Ceiling: at least 12,000 feet AGL
Clouds: few clouds at 2000 feet AGL
Weather: no significant weather observed at this time

METAR text: LMML 030115Z 23003KT CAVOK 17/15 Q1012 NOSIG
Conditions at: LMML (LUQA/MALTA , MT) observed 0115 UTC 03 June 2020
Temperature: 17.0°C (63°F)
Dewpoint: 15.0°C (59°F) [RH = 88%]
Pressure (altimeter): 29.88 inches Hg (1012.0 mb)
Winds: from the SW (230 degrees) at 3 MPH (3 knots; 1.5 m/s)
Visibility: 6 or more miles (10+ km)
Ceiling: ceiling and visibility are OK
Clouds: unknown
Weather: no significant weather observed at this time

METAR text: LMML 030045Z 24003KT CAVOK 17/15 Q1012 NOSIG
Conditions at: LMML (LUQA/MALTA , MT) observed 0045 UTC 03 June 2020
Temperature: 17.0°C (63°F)
Dewpoint: 15.0°C (59°F) [RH = 88%]
Pressure (altimeter): 29.88 inches Hg (1012.0 mb)
Winds: from the WSW (240 degrees) at 3 MPH (3 knots; 1.5 m/s)
Visibility: 6 or more miles (10+ km)
Ceiling: ceiling and visibility are OK
Clouds: unknown
Weather: no significant weather observed at this time

METAR text: LMML 030015Z 21002KT CAVOK 17/15 Q1013 NOSIG
Conditions at: LMML (LUQA/MALTA , MT) observed 0015 UTC 03 June 2020
Temperature: 17.0°C (63°F)
Dewpoint: 15.0°C (59°F) [RH = 88%]
Pressure (altimeter): 29.91 inches Hg (1013.0 mb)
Winds: from the SSW (210 degrees) at 2 MPH (2 knots; 1.0 m/s)
Visibility: 6 or more miles (10+ km)
Ceiling: ceiling and visibility are OK
Clouds: unknown
Weather: no significant weather observed at this time

METAR text: LMML 022345Z 23002KT CAVOK 17/15 Q1013 NOSIG
Conditions at: LMML (LUQA/MALTA , MT) observed 2345 UTC 02 June 2020
Temperature: 17.0°C (63°F)
Dewpoint: 15.0°C (59°F) [RH = 88%]
Pressure (altimeter): 29.91 inches Hg (1013.0 mb)
Winds: from the SW (230 degrees) at 2 MPH (2 knots; 1.0 m/s)
Visibility: 6 or more miles (10+ km)
Ceiling: ceiling and visibility are OK
Clouds: unknown
Weather: no significant weather observed at this time

METAR text: LMML 022315Z 21003KT 170V230 CAVOK 18/15 Q1013 NOSIG
Conditions at: LMML (LUQA/MALTA , MT) observed 2315 UTC 02 June 2020
Temperature: 18.0°C (64°F)
Dewpoint: 15.0°C (59°F) [RH = 83%]
Pressure (altimeter): 29.91 inches Hg (1013.0 mb)
Winds: from the SSW (210 degrees) at 3 MPH (3 knots; 1.5 m/s)
Visibility: 6 or more miles (10+ km)
Ceiling: ceiling and visibility are OK
Clouds: unknown
Weather: no significant weather observed at this time

METAR text: LMML 022245Z AUTO 23003KT CAVOK 18/15 Q1014 NOSIG
Conditions at: LMML (LUQA/MALTA , MT) observed 2245 UTC 02 June 2020
Temperature: 18.0°C (64°F)
Dewpoint: 15.0°C (59°F) [RH = 83%]
Pressure (altimeter): 29.94 inches Hg (1014.0 mb)
Winds: from the SW (230 degrees) at 3 MPH (3 knots; 1.5 m/s)
Visibility: 6 or more miles (10+ km)
Ceiling: ceiling and visibility are OK
Clouds: unknown
Weather: no significant weather observed at this time

METAR text: LMML 022215Z 25003KT 9999 FEW021 18/15 Q1014 NOSIG
Conditions at: LMML (LUQA/MALTA , MT) observed 2215 UTC 02 June 2020
Temperature: 18.0°C (64°F)
Dewpoint: 15.0°C (59°F) [RH = 83%]
Pressure (altimeter): 29.94 inches Hg (1014.0 mb)
Winds: from the WSW (250 degrees) at 3 MPH (3 knots; 1.5 m/s)
Visibility: 6 or more miles (10+ km)
Ceiling: at least 12,000 feet AGL
Clouds: few clouds at 2100 feet AGL
Weather: no significant weather observed at this time

METAR text: LMML 022145Z 24003KT 9999 FEW021 18/15 Q1014 NOSIG
Conditions at: LMML (LUQA/MALTA , MT) observed 2145 UTC 02 June 2020
Temperature: 18.0°C (64°F)
Dewpoint: 15.0°C (59°F) [RH = 83%]
Pressure (altimeter): 29.94 inches Hg (1014.0 mb)
Winds: from the WSW (240 degrees) at 3 MPH (3 knots; 1.5 m/s)
Visibility: 6 or more miles (10+ km)
Ceiling: at least 12,000 feet AGL
Clouds: few clouds at 2100 feet AGL
Weather: no significant weather observed at this time

METAR text: LMML 022115Z 26003KT 9999 FEW021 18/15 Q1014 NOSIG
Conditions at: LMML (LUQA/MALTA , MT) observed 2115 UTC 02 June 2020
Temperature: 18.0°C (64°F)
Dewpoint: 15.0°C (59°F) [RH = 83%]
Pressure (altimeter): 29.94 inches Hg (1014.0 mb)
Winds: from the W (260 degrees) at 3 MPH (3 knots; 1.5 m/s)
Visibility: 6 or more miles (10+ km)
Ceiling: at least 12,000 feet AGL
Clouds: few clouds at 2100 feet AGL
Weather: no significant weather observed at this time

METAR text: LMML 022045Z 24004KT 9999 FEW020 18/15 Q1014 NOSIG
Conditions at: LMML (LUQA/MALTA , MT) observed 2045 UTC 02 June 2020
Temperature: 18.0°C (64°F)
Dewpoint: 15.0°C (59°F) [RH = 83%]
Pressure (altimeter): 29.94 inches Hg (1014.0 mb)
Winds: from the WSW (240 degrees) at 5 MPH (4 knots; 2.1 m/s)
Visibility: 6 or more miles (10+ km)
Ceiling: at least 12,000 feet AGL
Clouds: few clouds at 2000 feet AGL
Weather: no significant weather observed at this time

METAR text: LMML 022015Z AUTO 26003KT CAVOK 19/16 Q1014
Conditions at: LMML (LUQA/MALTA , MT) observed 2015 UTC 02 June 2020
Temperature: 19.0°C (66°F)
Dewpoint: 16.0°C (61°F) [RH = 83%]
Pressure (altimeter): 29.94 inches Hg (1014.0 mb)
Winds: from the W (260 degrees) at 3 MPH (3 knots; 1.5 m/s)
Visibility: 6 or more miles (10+ km)
Ceiling: ceiling and visibility are OK
Clouds: unknown
Weather: no significant weather observed at this time

METAR text: LMML 021945Z AUTO 25002KT CAVOK 19/16 Q1013
Conditions at: LMML (LUQA/MALTA , MT) observed 1945 UTC 02 June 2020
Temperature: 19.0°C (66°F)
Dewpoint: 16.0°C (61°F) [RH = 83%]
Pressure (altimeter): 29.91 inches Hg (1013.0 mb)
Winds: from the WSW (250 degrees) at 2 MPH (2 knots; 1.0 m/s)
Visibility: 6 or more miles (10+ km)
Ceiling: ceiling and visibility are OK
Clouds: unknown
Weather: no significant weather observed at this time

METAR text: LMML 021915Z AUTO 25003KT CAVOK 19/15 Q1013
Conditions at: LMML (LUQA/MALTA , MT) observed 1915 UTC 02 June 2020
Temperature: 19.0°C (66°F)
Dewpoint: 15.0°C (59°F) [RH = 78%]
Pressure (altimeter): 29.91 inches Hg (1013.0 mb)
Winds: from the WSW (250 degrees) at 3 MPH (3 knots; 1.5 m/s)
Visibility: 6 or more miles (10+ km)
Ceiling: ceiling and visibility are OK
Clouds: unknown
Weather: no significant weather observed at this time

METAR text: LMML 021845Z AUTO 26004KT CAVOK 20/15 Q1013
Conditions at: LMML (LUQA/MALTA , MT) observed 1845 UTC 02 June 2020
Temperature: 20.0°C (68°F)
Dewpoint: 15.0°C (59°F) [RH = 73%]
Pressure (altimeter): 29.91 inches Hg (1013.0 mb)
Winds: from the W (260 degrees) at 5 MPH (4 knots; 2.1 m/s)
Visibility: 6 or more miles (10+ km)
Ceiling: ceiling and visibility are OK
Clouds: unknown
Weather: no significant weather observed at this time

METAR text: LMML 021815Z AUTO 25005KT 220V280 9999 NCD 20/16 Q1013
Conditions at: LMML (LUQA/MALTA , MT) observed 1815 UTC 02 June 2020
Temperature: 20.0°C (68°F)
Dewpoint: 16.0°C (61°F) [RH = 78%]
Pressure (altimeter): 29.91 inches Hg (1013.0 mb)
Winds: from the WSW (250 degrees) at 6 MPH (5 knots; 2.6 m/s)
Visibility: 6 or more miles (10+ km)
Ceiling: at least 12,000 feet AGL
Clouds: sky clear below 12,000 feet AGL
Weather: no significant weather observed at this time

METAR text: LMML 021745Z 24006KT 220V290 9999 FEW025 21/15 Q1013 NOSIG
Conditions at: LMML (LUQA/MALTA , MT) observed 1745 UTC 02 June 2020
Temperature: 21.0°C (70°F)
Dewpoint: 15.0°C (59°F) [RH = 69%]
Pressure (altimeter): 29.91 inches Hg (1013.0 mb)
Winds: from the WSW (240 degrees) at 7 MPH (6 knots; 3.1 m/s)
Visibility: 6 or more miles (10+ km)
Ceiling: at least 12,000 feet AGL
Clouds: few clouds at 2500 feet AGL
Weather: no significant weather observed at this time

METAR text: LMML 021715Z 23006KT 9999 FEW025 22/15 Q1013 NOSIG
Conditions at: LMML (LUQA/MALTA , MT) observed 1715 UTC 02 June 2020
Temperature: 22.0°C (72°F)
Dewpoint: 15.0°C (59°F) [RH = 65%]
Pressure (altimeter): 29.91 inches Hg (1013.0 mb)
Winds: from the SW (230 degrees) at 7 MPH (6 knots; 3.1 m/s)
Visibility: 6 or more miles (10+ km)
Ceiling: at least 12,000 feet AGL
Clouds: few clouds at 2500 feet AGL
Weather: no significant weather observed at this time

METAR text: LMML 021645Z 23006KT 150V260 9999 FEW025 22/16 Q1013 NOSIG
Conditions at: LMML (LUQA/MALTA , MT) observed 1645 UTC 02 June 2020
Temperature: 22.0°C (72°F)
Dewpoint: 16.0°C (61°F) [RH = 69%]
Pressure (altimeter): 29.91 inches Hg (1013.0 mb)
Winds: from the SW (230 degrees) at 7 MPH (6 knots; 3.1 m/s)
Visibility: 6 or more miles (10+ km)
Ceiling: at least 12,000 feet AGL
Clouds: few clouds at 2500 feet AGL
Weather: no significant weather observed at this time

METAR text: LMML 021615Z 22008KT 170V250 9999 FEW024 22/16 Q1013 NOSIG
Conditions at: LMML (LUQA/MALTA , MT) observed 1615 UTC 02 June 2020
Temperature: 22.0°C (72°F)
Dewpoint: 16.0°C (61°F) [RH = 69%]
Pressure (altimeter): 29.91 inches Hg (1013.0 mb)
Winds: from the SW (220 degrees) at 9 MPH (8 knots; 4.1 m/s)
Visibility: 6 or more miles (10+ km)
Ceiling: at least 12,000 feet AGL
Clouds: few clouds at 2400 feet AGL
Weather: no significant weather observed at this time

METAR text: LMML 021545Z 23008KT 190V260 9999 FEW024 23/16 Q1013 NOSIG
Conditions at: LMML (LUQA/MALTA , MT) observed 1545 UTC 02 June 2020
Temperature: 23.0°C (73°F)
Dewpoint: 16.0°C (61°F) [RH = 65%]
Pressure (altimeter): 29.91 inches Hg (1013.0 mb)
Winds: from the SW (230 degrees) at 9 MPH (8 knots; 4.1 m/s)
Visibility: 6 or more miles (10+ km)
Ceiling: at least 12,000 feet AGL
Clouds: few clouds at 2400 feet AGL
Weather: no significant weather observed at this time

METAR text: LMML 021515Z 23009KT 190V260 9999 FEW035 23/15 Q1013 NOSIG
Conditions at: LMML (LUQA/MALTA , MT) observed 1515 UTC 02 June 2020
Temperature: 23.0°C (73°F)
Dewpoint: 15.0°C (59°F) [RH = 61%]
Pressure (altimeter): 29.91 inches Hg (1013.0 mb)
Winds: from the SW (230 degrees) at 10 MPH (9 knots; 4.6 m/s)
Visibility: 6 or more miles (10+ km)
Ceiling: at least 12,000 feet AGL
Clouds: few clouds at 3500 feet AGL
Weather: no significant weather observed at this time

METAR text: LMML 021445Z 22009KT 180V290 9999 SCT038 23/15 Q1013 NOSIG
Conditions at: LMML (LUQA/MALTA , MT) observed 1445 UTC 02 June 2020
Temperature: 23.0°C (73°F)
Dewpoint: 15.0°C (59°F) [RH = 61%]
Pressure (altimeter): 29.91 inches Hg (1013.0 mb)
Winds: from the SW (220 degrees) at 10 MPH (9 knots; 4.6 m/s)
Visibility: 6 or more miles (10+ km)
Ceiling: at least 12,000 feet AGL
Clouds: scattered clouds at 3800 feet AGL
Weather: no significant weather observed at this time

METAR text: LMML 021415Z 19010KT 160V240 9999 SCT029 23/15 Q1014 NOSIG
Conditions at: LMML (LUQA/MALTA , MT) observed 1415 UTC 02 June 2020
Temperature: 23.0°C (73°F)
Dewpoint: 15.0°C (59°F) [RH = 61%]
Pressure (altimeter): 29.94 inches Hg (1014.0 mb)
Winds: from the S (190 degrees) at 12 MPH (10 knots; 5.1 m/s)
Visibility: 6 or more miles (10+ km)
Ceiling: at least 12,000 feet AGL
Clouds: scattered clouds at 2900 feet AGL
Weather: no significant weather observed at this time

METAR text: LMML 021345Z 20009KT 160V230 9999 SCT026 22/15 Q1014 NOSIG
Conditions at: LMML (LUQA/MALTA , MT) observed 1345 UTC 02 June 2020
Temperature: 22.0°C (72°F)
Dewpoint: 15.0°C (59°F) [RH = 65%]
Pressure (altimeter): 29.94 inches Hg (1014.0 mb)
Winds: from the SSW (200 degrees) at 10 MPH (9 knots; 4.6 m/s)
Visibility: 6 or more miles (10+ km)
Ceiling: at least 12,000 feet AGL
Clouds: scattered clouds at 2600 feet AGL
Weather: no significant weather observed at this time

METAR text: LMML 021315Z 20009KT 170V230 9999 BKN024 22/15 Q1014 NOSIG
Conditions at: LMML (LUQA/MALTA , MT) observed 1315 UTC 02 June 2020
Temperature: 22.0°C (72°F)
Dewpoint: 15.0°C (59°F) [RH = 65%]
Pressure (altimeter): 29.94 inches Hg (1014.0 mb)
Winds: from the SSW (200 degrees) at 10 MPH (9 knots; 4.6 m/s)
Visibility: 6 or more miles (10+ km)
Ceiling: 2400 feet AGL
Clouds: broken clouds at 2400 feet AGL
Weather: no significant weather observed at this time

METAR text: LMML 021245Z 19008KT 130V220 9999 BKN025 22/15 Q1014 NOSIG
Conditions at: LMML (LUQA/MALTA , MT) observed 1245 UTC 02 June 2020
Temperature: 22.0°C (72°F)
Dewpoint: 15.0°C (59°F) [RH = 65%]
Pressure (altimeter): 29.94 inches Hg (1014.0 mb)
Winds: from the S (190 degrees) at 9 MPH (8 knots; 4.1 m/s)
Visibility: 6 or more miles (10+ km)
Ceiling: 2500 feet AGL
Clouds: broken clouds at 2500 feet AGL
Weather: no significant weather observed at this time

METAR text: LMML 021215Z 20008KT 140V240 9999 BKN024 22/15 Q1014 NOSIG
Conditions at: LMML (LUQA/MALTA , MT) observed 1215 UTC 02 June 2020
Temperature: 22.0°C (72°F)
Dewpoint: 15.0°C (59°F) [RH = 65%]
Pressure (altimeter): 29.94 inches Hg (1014.0 mb)
Winds: from the SSW (200 degrees) at 9 MPH (8 knots; 4.1 m/s)
Visibility: 6 or more miles (10+ km)
Ceiling: 2400 feet AGL
Clouds: broken clouds at 2400 feet AGL
Weather: no significant weather observed at this time

METAR text: LMML 021145Z 19007KT 130V240 9999 BKN026 22/15 Q1015 NOSIG
Conditions at: LMML (LUQA/MALTA , MT) observed 1145 UTC 02 June 2020
Temperature: 22.0°C (72°F)
Dewpoint: 15.0°C (59°F) [RH = 65%]
Pressure (altimeter): 29.97 inches Hg (1015.0 mb)
Winds: from the S (190 degrees) at 8 MPH (7 knots; 3.6 m/s)
Visibility: 6 or more miles (10+ km)
Ceiling: 2600 feet AGL
Clouds: broken clouds at 2600 feet AGL
Weather: no significant weather observed at this time

METAR text: LMML 021115Z 19006KT 160V240 9999 BKN025 22/15 Q1015 NOSIG
Conditions at: LMML (LUQA/MALTA , MT) observed 1115 UTC 02 June 2020
Temperature: 22.0°C (72°F)
Dewpoint: 15.0°C (59°F) [RH = 65%]
Pressure (altimeter): 29.97 inches Hg (1015.0 mb)
Winds: from the S (190 degrees) at 7 MPH (6 knots; 3.1 m/s)
Visibility: 6 or more miles (10+ km)
Ceiling: 2500 feet AGL
Clouds: broken clouds at 2500 feet AGL
Weather: no significant weather observed at this time

METAR text: LMML 021045Z 19004KT 150V290 9999 BKN027 22/15 Q1015 NOSIG
Conditions at: LMML (LUQA/MALTA , MT) observed 1045 UTC 02 June 2020
Temperature: 22.0°C (72°F)
Dewpoint: 15.0°C (59°F) [RH = 65%]
Pressure (altimeter): 29.97 inches Hg (1015.0 mb)
Winds: from the S (190 degrees) at 5 MPH (4 knots; 2.1 m/s)
Visibility: 6 or more miles (10+ km)
Ceiling: 2700 feet AGL
Clouds: broken clouds at 2700 feet AGL
Weather: no significant weather observed at this time

METAR text: LMML 021015Z VRB04KT 9999 BKN023 22/15 Q1015 NOSIG
Conditions at: LMML (LUQA/MALTA , MT) observed 1015 UTC 02 June 2020
Temperature: 22.0°C (72°F)
Dewpoint: 15.0°C (59°F) [RH = 65%]
Pressure (altimeter): 29.97 inches Hg (1015.0 mb)
Winds: variable direction winds at 5 MPH (4 knots; 2.1 m/s)
Visibility: 6 or more miles (10+ km)
Ceiling: 2300 feet AGL
Clouds: broken clouds at 2300 feet AGL
Weather: no significant weather observed at this time

METAR text: LMML 020945Z 16006KT 110V210 9999 SCT022 22/15 Q1015 NOSIG
Conditions at: LMML (LUQA/MALTA , MT) observed 0945 UTC 02 June 2020
Temperature: 22.0°C (72°F)
Dewpoint: 15.0°C (59°F) [RH = 65%]
Pressure (altimeter): 29.97 inches Hg (1015.0 mb)
Winds: from the SSE (160 degrees) at 7 MPH (6 knots; 3.1 m/s)
Visibility: 6 or more miles (10+ km)
Ceiling: at least 12,000 feet AGL
Clouds: scattered clouds at 2200 feet AGL
Weather: no significant weather observed at this time

METAR text: LMML 020915Z 17007KT 9999 SCT021 21/15 Q1015 NOSIG
Conditions at: LMML (LUQA/MALTA , MT) observed 0915 UTC 02 June 2020
Temperature: 21.0°C (70°F)
Dewpoint: 15.0°C (59°F) [RH = 69%]
Pressure (altimeter): 29.97 inches Hg (1015.0 mb)
Winds: from the S (170 degrees) at 8 MPH (7 knots; 3.6 m/s)
Visibility: 6 or more miles (10+ km)
Ceiling: at least 12,000 feet AGL
Clouds: scattered clouds at 2100 feet AGL
Weather: no significant weather observed at this time

METAR text: LMML 020845Z 16006KT 140V200 9999 SCT028 21/15 Q1015 NOSIG
Conditions at: LMML (LUQA/MALTA , MT) observed 0845 UTC 02 June 2020
Temperature: 21.0°C (70°F)
Dewpoint: 15.0°C (59°F) [RH = 69%]
Pressure (altimeter): 29.97 inches Hg (1015.0 mb)
Winds: from the SSE (160 degrees) at 7 MPH (6 knots; 3.1 m/s)
Visibility: 6 or more miles (10+ km)
Ceiling: at least 12,000 feet AGL
Clouds: scattered clouds at 2800 feet AGL
Weather: no significant weather observed at this time

METAR text: LMML 020815Z AUTO 18007KT 130V230 9999 OVC024/// 23/15 Q1015
Conditions at: LMML (LUQA/MALTA , MT) observed 0815 UTC 02 June 2020
Temperature: 23.0°C (73°F)
Dewpoint: 15.0°C (59°F) [RH = 61%]
Pressure (altimeter): 29.97 inches Hg (1015.0 mb)
Winds: from the S (180 degrees) at 8 MPH (7 knots; 3.6 m/s)
Visibility: 6 or more miles (10+ km)
Ceiling: 2400 feet AGL
Clouds: overcast cloud deck at 2400 feet AGL
Weather: no significant weather observed at this time

METAR text: LMML 020745Z AUTO 10006KT 040V170 9999 BKN023/// BKN035 OVC043 23/15 Q1015
Conditions at: LMML (LUQA/MALTA , MT) observed 0745 UTC 02 June 2020
Temperature: 23.0°C (73°F)
Dewpoint: 15.0°C (59°F) [RH = 61%]
Pressure (altimeter): 29.97 inches Hg (1015.0 mb)
Winds: from the E (100 degrees) at 7 MPH (6 knots; 3.1 m/s)
Visibility: 6 or more miles (10+ km)
Ceiling: 2300 feet AGL
Clouds: broken clouds at 2300 feet AGL
broken clouds at 3500 feet AGL
overcast cloud deck at 4300 feet AGL
Weather: no significant weather observed at this time

METAR text: LMML 020715Z AUTO 12005KT 040V150 9999 BKN022/// BKN026 BKN029 21/16 Q1015
Conditions at: LMML (LUQA/MALTA , MT) observed 0715 UTC 02 June 2020
Temperature: 21.0°C (70°F)
Dewpoint: 16.0°C (61°F) [RH = 73%]
Pressure (altimeter): 29.97 inches Hg (1015.0 mb)
Winds: from the ESE (120 degrees) at 6 MPH (5 knots; 2.6 m/s)
Visibility: 6 or more miles (10+ km)
Ceiling: 2200 feet AGL
Clouds: broken clouds at 2200 feet AGL
broken clouds at 2600 feet AGL
broken clouds at 2900 feet AGL
Weather: no significant weather observed at this time

METAR text: LMML 020645Z AUTO VRB04KT 9999 SCT019/// BKN022/// BKN027 21/16 Q1015
Conditions at: LMML (LUQA/MALTA , MT) observed 0645 UTC 02 June 2020
Temperature: 21.0°C (70°F)
Dewpoint: 16.0°C (61°F) [RH = 73%]
Pressure (altimeter): 29.97 inches Hg (1015.0 mb)
Winds: variable direction winds at 5 MPH (4 knots; 2.1 m/s)
Visibility: 6 or more miles (10+ km)
Ceiling: 2200 feet AGL
Clouds: scattered clouds at 1900 feet AGL
broken clouds at 2200 feet AGL
broken clouds at 2700 feet AGL
Weather: no significant weather observed at this time

METAR text: LMML 020615Z AUTO 09004KT 060V140 9999 FEW017/// SCT020/// 20/16 Q1015
Conditions at: LMML (LUQA/MALTA , MT) observed 0615 UTC 02 June 2020
Temperature: 20.0°C (68°F)
Dewpoint: 16.0°C (61°F) [RH = 78%]
Pressure (altimeter): 29.97 inches Hg (1015.0 mb)
Winds: from the E (90 degrees) at 5 MPH (4 knots; 2.1 m/s)
Visibility: 6 or more miles (10+ km)
Ceiling: at least 12,000 feet AGL
Clouds: few clouds at 1700 feet AGL
scattered clouds at 2000 feet AGL
Weather: no significant weather observed at this time

METAR text: LMML 020545Z 06004KT 9999 FEW014 20/17 Q1014
Conditions at: LMML (LUQA/MALTA , MT) observed 0545 UTC 02 June 2020
Temperature: 20.0°C (68°F)
Dewpoint: 17.0°C (63°F) [RH = 83%]
Pressure (altimeter): 29.94 inches Hg (1014.0 mb)
Winds: from the ENE (60 degrees) at 5 MPH (4 knots; 2.1 m/s)
Visibility: 6 or more miles (10+ km)
Ceiling: at least 12,000 feet AGL
Clouds: few clouds at 1400 feet AGL
Weather: no significant weather observed at this time

METAR text: LMML 020515Z VRB01KT 9999 FEW014 19/17 Q1014
Conditions at: LMML (LUQA/MALTA , MT) observed 0515 UTC 02 June 2020
Temperature: 19.0°C (66°F)
Dewpoint: 17.0°C (63°F) [RH = 88%]
Pressure (altimeter): 29.94 inches Hg (1014.0 mb)
Winds: variable direction winds at 1 MPH (1 knots; 0.5 m/s)
Visibility: 6 or more miles (10+ km)
Ceiling: at least 12,000 feet AGL
Clouds: few clouds at 1400 feet AGL
Weather: no significant weather observed at this time

Forecast for: LMML (LUQA/MALTA , MT)
Text: TAF LMML 031100Z 0312/0412 22005KT 9999 FEW025
Forecast period: 1200 UTC 03 June 2020 to 0000 UTC 04 June 2020
Forecast type: FROM: standard forecast or significant change
Winds: from the SW (220 degrees) at 6 MPH (5 knots; 2.6 m/s)
Visibility: 6 or more miles 10+ km)
Ceiling: at least 12,000 feet AGL
Clouds: few clouds at 2500 feet AGL
Weather: no significant weather forecast for this period
Text: PROB40 0320/0406 BKN012
Forecast period: 2000 UTC 03 June 2020 to 0600 UTC 04 June 2020
Forecast type: PROBABLE: 40 percent likelihood of the following during this time
Visibility: missing
Ceiling: 1200 feet AGL
Clouds: broken clouds at 1200 feet AGL
Weather: no significant weather forecast for this period
Text: BECMG 0400/0403 16012KT
Forecast period: 0000 to 1200 UTC 04 June 2020
Forecast type: BECOMING: Conditions expected to become as follows by 0300 UTC 04 June 2020
Winds: from the SSE (160 degrees) at 14 MPH (12 knots; 6.2 m/s)
Visibility: 6 or more miles 10+ km)
Ceiling: at least 12,000 feet AGL
Clouds: few clouds at 2500 feet AGL
Weather: no significant weather forecast for this period